sensor_id;sensor_type;location;lat;lon;timestamp;P1;durP1;ratioP1;P2;durP2;ratioP2
22894;SDS011;11614;52.494;6.976;2023-07-29T00:01:43;11.43;;;7.57;;
22894;SDS011;11614;52.494;6.976;2023-07-29T00:04:11;13.00;;;9.13;;
22894;SDS011;11614;52.494;6.976;2023-07-29T00:06:37;16.33;;;10.03;;
22894;SDS011;11614;52.494;6.976;2023-07-29T00:09:03;15.23;;;10.27;;
22894;SDS011;11614;52.494;6.976;2023-07-29T00:11:29;18.10;;;10.77;;
22894;SDS011;11614;52.494;6.976;2023-07-29T00:13:57;15.63;;;10.30;;
22894;SDS011;11614;52.494;6.976;2023-07-29T00:16:23;14.80;;;10.23;;
22894;SDS011;11614;52.494;6.976;2023-07-29T00:18:49;16.13;;;10.23;;
22894;SDS011;11614;52.494;6.976;2023-07-29T00:21:15;19.07;;;10.60;;
22894;SDS011;11614;52.494;6.976;2023-07-29T00:23:41;14.23;;;10.57;;
22894;SDS011;11614;52.494;6.976;2023-07-29T00:26:07;16.20;;;9.83;;
22894;SDS011;11614;52.494;6.976;2023-07-29T00:28:33;13.57;;;10.02;;
22894;SDS011;11614;52.494;6.976;2023-07-29T00:30:59;15.43;;;10.20;;
22894;SDS011;11614;52.494;6.976;2023-07-29T00:33:25;15.17;;;9.97;;
22894;SDS011;11614;52.494;6.976;2023-07-29T00:35:51;14.60;;;10.60;;
22894;SDS011;11614;52.494;6.976;2023-07-29T00:38:17;15.57;;;10.00;;
22894;SDS011;11614;52.494;6.976;2023-07-29T00:40:43;15.00;;;10.95;;
22894;SDS011;11614;52.494;6.976;2023-07-29T00:43:09;16.20;;;10.67;;
22894;SDS011;11614;52.494;6.976;2023-07-29T00:45:35;16.13;;;10.90;;
22894;SDS011;11614;52.494;6.976;2023-07-29T00:48:01;16.33;;;11.88;;
22894;SDS011;11614;52.494;6.976;2023-07-29T00:50:28;16.40;;;12.03;;
22894;SDS011;11614;52.494;6.976;2023-07-29T00:52:59;16.15;;;11.70;;
22894;SDS011;11614;52.494;6.976;2023-07-29T00:55:28;20.48;;;12.95;;
22894;SDS011;11614;52.494;6.976;2023-07-29T00:58:03;23.23;;;13.20;;
22894;SDS011;11614;52.494;6.976;2023-07-29T01:00:30;23.77;;;13.07;;
22894;SDS011;11614;52.494;6.976;2023-07-29T01:02:57;18.40;;;11.83;;
22894;SDS011;11614;52.494;6.976;2023-07-29T01:05:36;16.90;;;12.10;;
22894;SDS011;11614;52.494;6.976;2023-07-29T01:08:35;18.13;;;11.88;;
22894;SDS011;11614;52.494;6.976;2023-07-29T01:11:08;17.50;;;11.65;;
22894;SDS011;11614;52.494;6.976;2023-07-29T01:13:53;20.07;;;12.13;;
22894;SDS011;11614;52.494;6.976;2023-07-29T01:16:38;18.77;;;12.25;;
22894;SDS011;11614;52.494;6.976;2023-07-29T01:19:06;18.17;;;12.15;;
22894;SDS011;11614;52.494;6.976;2023-07-29T01:21:33;17.55;;;12.45;;
22894;SDS011;11614;52.494;6.976;2023-07-29T01:24:01;20.33;;;13.90;;
22894;SDS011;11614;52.494;6.976;2023-07-29T01:26:27;19.15;;;13.07;;
22894;SDS011;11614;52.494;6.976;2023-07-29T01:28:57;21.05;;;14.20;;
22894;SDS011;11614;52.494;6.976;2023-07-29T01:31:43;22.90;;;13.88;;
22894;SDS011;11614;52.494;6.976;2023-07-29T01:34:17;22.30;;;14.00;;
22894;SDS011;11614;52.494;6.976;2023-07-29T01:36:48;19.77;;;13.45;;
22894;SDS011;11614;52.494;6.976;2023-07-29T01:39:32;21.92;;;15.00;;
22894;SDS011;11614;52.494;6.976;2023-07-29T01:42:02;22.02;;;14.90;;
22894;SDS011;11614;52.494;6.976;2023-07-29T01:44:29;20.10;;;14.80;;
22894;SDS011;11614;52.494;6.976;2023-07-29T01:46:56;23.83;;;13.85;;
22894;SDS011;11614;52.494;6.976;2023-07-29T01:49:22;20.17;;;14.18;;
22894;SDS011;11614;52.494;6.976;2023-07-29T01:51:51;19.13;;;12.75;;
22894;SDS011;11614;52.494;6.976;2023-07-29T01:54:17;23.13;;;14.57;;
22894;SDS011;11614;52.494;6.976;2023-07-29T01:56:45;24.10;;;14.32;;
22894;SDS011;11614;52.494;6.976;2023-07-29T01:59:13;21.90;;;14.25;;
22894;SDS011;11614;52.494;6.976;2023-07-29T02:01:41;23.30;;;14.88;;
22894;SDS011;11614;52.494;6.976;2023-07-29T02:04:07;20.98;;;13.95;;
22894;SDS011;11614;52.494;6.976;2023-07-29T02:06:33;21.55;;;14.20;;
22894;SDS011;11614;52.494;6.976;2023-07-29T02:08:59;22.17;;;13.40;;
22894;SDS011;11614;52.494;6.976;2023-07-29T02:11:25;20.15;;;14.07;;
22894;SDS011;11614;52.494;6.976;2023-07-29T02:13:53;22.23;;;14.33;;
22894;SDS011;11614;52.494;6.976;2023-07-29T02:16:20;19.65;;;13.35;;
22894;SDS011;11614;52.494;6.976;2023-07-29T02:18:46;23.15;;;12.63;;
22894;SDS011;11614;52.494;6.976;2023-07-29T02:21:12;17.90;;;11.70;;
22894;SDS011;11614;52.494;6.976;2023-07-29T02:23:37;18.98;;;13.45;;
22894;SDS011;11614;52.494;6.976;2023-07-29T02:26:07;22.30;;;13.35;;
22894;SDS011;11614;52.494;6.976;2023-07-29T02:28:33;19.23;;;12.73;;
22894;SDS011;11614;52.494;6.976;2023-07-29T02:31:19;18.00;;;12.17;;
22894;SDS011;11614;52.494;6.976;2023-07-29T02:33:46;20.57;;;13.13;;
22894;SDS011;11614;52.494;6.976;2023-07-29T02:36:12;19.50;;;12.87;;
22894;SDS011;11614;52.494;6.976;2023-07-29T02:38:38;20.13;;;12.77;;
22894;SDS011;11614;52.494;6.976;2023-07-29T02:41:04;23.27;;;14.27;;
22894;SDS011;11614;52.494;6.976;2023-07-29T02:43:31;23.70;;;13.03;;
22894;SDS011;11614;52.494;6.976;2023-07-29T02:45:57;18.40;;;13.17;;
22894;SDS011;11614;52.494;6.976;2023-07-29T02:48:23;20.70;;;14.27;;
22894;SDS011;11614;52.494;6.976;2023-07-29T02:50:49;20.87;;;13.33;;
22894;SDS011;11614;52.494;6.976;2023-07-29T02:53:15;25.73;;;13.73;;
22894;SDS011;11614;52.494;6.976;2023-07-29T02:55:41;19.63;;;12.93;;
22894;SDS011;11614;52.494;6.976;2023-07-29T02:58:07;22.37;;;13.23;;
22894;SDS011;11614;52.494;6.976;2023-07-29T03:00:33;20.87;;;13.60;;
22894;SDS011;11614;52.494;6.976;2023-07-29T03:03:00;19.23;;;12.67;;
22894;SDS011;11614;52.494;6.976;2023-07-29T03:05:29;20.90;;;13.67;;
22894;SDS011;11614;52.494;6.976;2023-07-29T03:07:55;24.03;;;14.33;;
22894;SDS011;11614;52.494;6.976;2023-07-29T03:10:21;19.77;;;12.40;;
22894;SDS011;11614;52.494;6.976;2023-07-29T03:12:47;18.40;;;12.27;;
22894;SDS011;11614;52.494;6.976;2023-07-29T03:15:13;23.80;;;13.73;;
22894;SDS011;11614;52.494;6.976;2023-07-29T03:17:39;18.70;;;12.63;;
22894;SDS011;11614;52.494;6.976;2023-07-29T03:20:05;21.10;;;14.17;;
22894;SDS011;11614;52.494;6.976;2023-07-29T03:22:31;20.47;;;13.10;;
22894;SDS011;11614;52.494;6.976;2023-07-29T03:24:57;23.67;;;14.13;;
22894;SDS011;11614;52.494;6.976;2023-07-29T03:27:23;21.13;;;14.30;;
22894;SDS011;11614;52.494;6.976;2023-07-29T03:29:49;24.00;;;15.87;;
22894;SDS011;11614;52.494;6.976;2023-07-29T03:32:15;23.07;;;14.97;;
22894;SDS011;11614;52.494;6.976;2023-07-29T03:34:41;22.37;;;14.00;;
22894;SDS011;11614;52.494;6.976;2023-07-29T03:37:08;23.03;;;14.60;;
22894;SDS011;11614;52.494;6.976;2023-07-29T03:39:34;19.27;;;12.50;;
22894;SDS011;11614;52.494;6.976;2023-07-29T03:42:00;20.47;;;13.93;;
22894;SDS011;11614;52.494;6.976;2023-07-29T03:44:26;21.33;;;13.00;;
22894;SDS011;11614;52.494;6.976;2023-07-29T03:46:52;22.17;;;13.53;;
22894;SDS011;11614;52.494;6.976;2023-07-29T03:49:18;20.20;;;14.20;;
22894;SDS011;11614;52.494;6.976;2023-07-29T03:51:44;22.67;;;14.73;;
22894;SDS011;11614;52.494;6.976;2023-07-29T03:54:10;23.53;;;15.40;;
22894;SDS011;11614;52.494;6.976;2023-07-29T03:56:36;23.50;;;15.80;;
22894;SDS011;11614;52.494;6.976;2023-07-29T03:59:03;20.13;;;13.80;;
22894;SDS011;11614;52.494;6.976;2023-07-29T04:01:30;24.30;;;16.43;;
22894;SDS011;11614;52.494;6.976;2023-07-29T04:03:56;19.90;;;13.27;;
22894;SDS011;11614;52.494;6.976;2023-07-29T04:06:22;21.80;;;13.97;;
22894;SDS011;11614;52.494;6.976;2023-07-29T04:08:48;23.30;;;13.57;;
22894;SDS011;11614;52.494;6.976;2023-07-29T04:11:14;23.87;;;14.37;;
22894;SDS011;11614;52.494;6.976;2023-07-29T04:13:40;21.10;;;13.83;;
22894;SDS011;11614;52.494;6.976;2023-07-29T04:16:21;20.37;;;13.30;;
22894;SDS011;11614;52.494;6.976;2023-07-29T04:18:47;19.63;;;13.83;;
22894;SDS011;11614;52.494;6.976;2023-07-29T04:21:13;20.70;;;13.77;;
22894;SDS011;11614;52.494;6.976;2023-07-29T04:23:39;21.53;;;14.30;;
22894;SDS011;11614;52.494;6.976;2023-07-29T04:26:05;22.57;;;14.77;;
22894;SDS011;11614;52.494;6.976;2023-07-29T04:28:31;22.30;;;15.13;;
22894;SDS011;11614;52.494;6.976;2023-07-29T04:31:00;24.00;;;14.03;;
22894;SDS011;11614;52.494;6.976;2023-07-29T04:33:26;22.77;;;15.10;;
22894;SDS011;11614;52.494;6.976;2023-07-29T04:35:52;22.93;;;13.93;;
22894;SDS011;11614;52.494;6.976;2023-07-29T04:38:18;20.83;;;14.07;;
22894;SDS011;11614;52.494;6.976;2023-07-29T04:40:44;22.73;;;13.30;;
22894;SDS011;11614;52.494;6.976;2023-07-29T04:43:10;22.60;;;14.03;;
22894;SDS011;11614;52.494;6.976;2023-07-29T04:45:36;17.37;;;12.60;;
22894;SDS011;11614;52.494;6.976;2023-07-29T04:48:08;18.87;;;12.77;;
22894;SDS011;11614;52.494;6.976;2023-07-29T04:50:33;20.13;;;13.20;;
22894;SDS011;11614;52.494;6.976;2023-07-29T04:52:59;18.40;;;12.97;;
22894;SDS011;11614;52.494;6.976;2023-07-29T04:55:25;20.37;;;12.87;;
22894;SDS011;11614;52.494;6.976;2023-07-29T04:57:51;19.10;;;12.95;;
22894;SDS011;11614;52.494;6.976;2023-07-29T05:00:17;19.67;;;12.53;;
22894;SDS011;11614;52.494;6.976;2023-07-29T05:02:43;21.77;;;13.73;;
22894;SDS011;11614;52.494;6.976;2023-07-29T05:05:09;21.08;;;13.57;;
22894;SDS011;11614;52.494;6.976;2023-07-29T05:07:34;23.58;;;12.93;;
22894;SDS011;11614;52.494;6.976;2023-07-29T05:10:00;22.15;;;13.85;;
22894;SDS011;11614;52.494;6.976;2023-07-29T05:12:26;19.88;;;13.63;;
22894;SDS011;11614;52.494;6.976;2023-07-29T05:14:54;19.27;;;13.47;;
22894;SDS011;11614;52.494;6.976;2023-07-29T05:17:21;19.95;;;11.57;;
22894;SDS011;11614;52.494;6.976;2023-07-29T05:19:46;18.73;;;12.90;;
22894;SDS011;11614;52.494;6.976;2023-07-29T05:22:12;20.80;;;14.05;;
22894;SDS011;11614;52.494;6.976;2023-07-29T05:24:39;23.15;;;14.10;;
22894;SDS011;11614;52.494;6.976;2023-07-29T05:27:05;19.25;;;13.25;;
22894;SDS011;11614;52.494;6.976;2023-07-29T05:29:30;18.20;;;12.65;;
22894;SDS011;11614;52.494;6.976;2023-07-29T05:31:56;18.55;;;12.95;;
22894;SDS011;11614;52.494;6.976;2023-07-29T05:34:22;17.90;;;12.70;;
22894;SDS011;11614;52.494;6.976;2023-07-29T05:36:49;15.93;;;12.02;;
22894;SDS011;11614;52.494;6.976;2023-07-29T05:39:15;19.90;;;13.50;;
22894;SDS011;11614;52.494;6.976;2023-07-29T05:41:41;16.80;;;11.40;;
22894;SDS011;11614;52.494;6.976;2023-07-29T05:44:07;18.70;;;11.55;;
22894;SDS011;11614;52.494;6.976;2023-07-29T05:46:32;17.38;;;11.18;;
22894;SDS011;11614;52.494;6.976;2023-07-29T05:48:58;16.30;;;11.52;;
22894;SDS011;11614;52.494;6.976;2023-07-29T05:51:24;18.20;;;11.35;;
22894;SDS011;11614;52.494;6.976;2023-07-29T05:53:50;15.15;;;10.98;;
22894;SDS011;11614;52.494;6.976;2023-07-29T05:56:16;19.10;;;12.63;;
22894;SDS011;11614;52.494;6.976;2023-07-29T05:58:42;15.82;;;10.75;;
22894;SDS011;11614;52.494;6.976;2023-07-29T06:01:09;16.73;;;11.13;;
22894;SDS011;11614;52.494;6.976;2023-07-29T06:03:34;17.63;;;10.95;;
22894;SDS011;11614;52.494;6.976;2023-07-29T06:06:00;18.30;;;11.68;;
22894;SDS011;11614;52.494;6.976;2023-07-29T06:08:26;18.83;;;11.68;;
22894;SDS011;11614;52.494;6.976;2023-07-29T06:10:54;16.13;;;10.55;;
22894;SDS011;11614;52.494;6.976;2023-07-29T06:13:20;13.48;;;10.68;;
22894;SDS011;11614;52.494;6.976;2023-07-29T06:15:45;18.95;;;11.75;;
22894;SDS011;11614;52.494;6.976;2023-07-29T06:18:11;16.00;;;10.95;;
22894;SDS011;11614;52.494;6.976;2023-07-29T06:20:37;16.13;;;10.73;;
22894;SDS011;11614;52.494;6.976;2023-07-29T06:23:03;15.32;;;10.57;;
22894;SDS011;11614;52.494;6.976;2023-07-29T06:25:29;21.70;;;12.02;;
22894;SDS011;11614;52.494;6.976;2023-07-29T06:27:55;16.80;;;10.52;;
22894;SDS011;11614;52.494;6.976;2023-07-29T06:30:23;13.05;;;8.60;;
22894;SDS011;11614;52.494;6.976;2023-07-29T06:32:49;13.05;;;9.35;;
22894;SDS011;11614;52.494;6.976;2023-07-29T06:35:15;15.75;;;10.30;;
22894;SDS011;11614;52.494;6.976;2023-07-29T06:37:44;11.20;;;7.50;;
22894;SDS011;11614;52.494;6.976;2023-07-29T06:40:10;10.30;;;6.63;;
22894;SDS011;11614;52.494;6.976;2023-07-29T06:42:36;11.82;;;7.70;;
22894;SDS011;11614;52.494;6.976;2023-07-29T06:45:03;8.75;;;6.03;;
22894;SDS011;11614;52.494;6.976;2023-07-29T06:47:30;8.35;;;5.95;;
22894;SDS011;11614;52.494;6.976;2023-07-29T06:49:56;10.40;;;7.13;;
22894;SDS011;11614;52.494;6.976;2023-07-29T06:52:22;10.15;;;5.70;;
22894;SDS011;11614;52.494;6.976;2023-07-29T06:54:48;7.82;;;5.47;;
22894;SDS011;11614;52.494;6.976;2023-07-29T06:57:14;8.25;;;5.13;;
22894;SDS011;11614;52.494;6.976;2023-07-29T06:59:40;9.10;;;5.78;;
22894;SDS011;11614;52.494;6.976;2023-07-29T07:02:06;11.23;;;6.05;;
22894;SDS011;11614;52.494;6.976;2023-07-29T07:04:32;6.95;;;4.57;;
22894;SDS011;11614;52.494;6.976;2023-07-29T07:06:58;7.80;;;5.95;;
22894;SDS011;11614;52.494;6.976;2023-07-29T07:09:24;8.68;;;6.20;;
22894;SDS011;11614;52.494;6.976;2023-07-29T07:11:50;8.77;;;6.15;;
22894;SDS011;11614;52.494;6.976;2023-07-29T07:14:17;9.82;;;6.53;;
22894;SDS011;11614;52.494;6.976;2023-07-29T07:16:43;8.75;;;6.25;;
22894;SDS011;11614;52.494;6.976;2023-07-29T07:19:10;9.00;;;5.97;;
22894;SDS011;11614;52.494;6.976;2023-07-29T07:21:36;9.68;;;6.57;;
22894;SDS011;11614;52.494;6.976;2023-07-29T07:24:02;9.52;;;7.03;;
22894;SDS011;11614;52.494;6.976;2023-07-29T07:26:28;8.27;;;5.88;;
22894;SDS011;11614;52.494;6.976;2023-07-29T07:28:54;7.30;;;5.50;;
22894;SDS011;11614;52.494;6.976;2023-07-29T07:31:20;9.43;;;6.32;;
22894;SDS011;11614;52.494;6.976;2023-07-29T07:33:46;9.20;;;5.90;;
22894;SDS011;11614;52.494;6.976;2023-07-29T07:36:12;7.97;;;5.50;;
22894;SDS011;11614;52.494;6.976;2023-07-29T07:38:38;7.43;;;4.72;;
22894;SDS011;11614;52.494;6.976;2023-07-29T07:41:04;7.50;;;5.63;;
22894;SDS011;11614;52.494;6.976;2023-07-29T07:43:30;7.35;;;5.22;;
22894;SDS011;11614;52.494;6.976;2023-07-29T07:46:00;8.90;;;6.38;;
22894;SDS011;11614;52.494;6.976;2023-07-29T07:48:26;7.65;;;6.20;;
22894;SDS011;11614;52.494;6.976;2023-07-29T07:50:52;7.70;;;5.30;;
22894;SDS011;11614;52.494;6.976;2023-07-29T07:53:18;7.15;;;5.97;;
22894;SDS011;11614;52.494;6.976;2023-07-29T07:55:47;9.70;;;5.80;;
22894;SDS011;11614;52.494;6.976;2023-07-29T07:58:13;7.78;;;5.75;;
22894;SDS011;11614;52.494;6.976;2023-07-29T08:00:39;8.10;;;5.07;;
22894;SDS011;11614;52.494;6.976;2023-07-29T08:03:06;8.07;;;5.25;;
22894;SDS011;11614;52.494;6.976;2023-07-29T08:05:31;5.75;;;4.88;;
22894;SDS011;11614;52.494;6.976;2023-07-29T08:07:57;7.78;;;4.70;;
22894;SDS011;11614;52.494;6.976;2023-07-29T08:10:24;7.10;;;5.20;;
22894;SDS011;11614;52.494;6.976;2023-07-29T08:12:50;6.10;;;4.47;;
22894;SDS011;11614;52.494;6.976;2023-07-29T08:15:16;4.85;;;4.00;;
22894;SDS011;11614;52.494;6.976;2023-07-29T08:17:42;6.10;;;4.53;;
22894;SDS011;11614;52.494;6.976;2023-07-29T08:20:08;5.10;;;4.20;;
22894;SDS011;11614;52.494;6.976;2023-07-29T08:22:34;5.40;;;3.42;;
22894;SDS011;11614;52.494;6.976;2023-07-29T08:25:00;5.22;;;4.18;;
22894;SDS011;11614;52.494;6.976;2023-07-29T08:27:26;3.60;;;3.22;;
22894;SDS011;11614;52.494;6.976;2023-07-29T08:29:53;4.32;;;3.90;;
22894;SDS011;11614;52.494;6.976;2023-07-29T08:32:19;2.85;;;2.47;;
22894;SDS011;11614;52.494;6.976;2023-07-29T08:34:45;4.47;;;3.88;;
22894;SDS011;11614;52.494;6.976;2023-07-29T08:37:11;6.03;;;3.28;;
22894;SDS011;11614;52.494;6.976;2023-07-29T08:39:38;6.35;;;4.00;;
22894;SDS011;11614;52.494;6.976;2023-07-29T08:42:04;4.00;;;3.30;;
22894;SDS011;11614;52.494;6.976;2023-07-29T08:44:35;4.30;;;3.90;;
22894;SDS011;11614;52.494;6.976;2023-07-29T08:47:04;4.43;;;4.03;;
22894;SDS011;11614;52.494;6.976;2023-07-29T08:49:30;5.13;;;3.80;;
22894;SDS011;11614;52.494;6.976;2023-07-29T08:51:56;4.65;;;3.95;;
22894;SDS011;11614;52.494;6.976;2023-07-29T08:54:23;4.85;;;4.15;;
22894;SDS011;11614;52.494;6.976;2023-07-29T08:56:49;4.53;;;3.95;;
22894;SDS011;11614;52.494;6.976;2023-07-29T08:59:15;4.78;;;3.47;;
22894;SDS011;11614;52.494;6.976;2023-07-29T09:01:42;3.75;;;3.30;;
22894;SDS011;11614;52.494;6.976;2023-07-29T09:04:08;3.55;;;2.92;;
22894;SDS011;11614;52.494;6.976;2023-07-29T09:06:35;2.75;;;1.98;;
22894;SDS011;11614;52.494;6.976;2023-07-29T09:09:03;5.72;;;3.88;;
22894;SDS011;11614;52.494;6.976;2023-07-29T09:11:29;4.15;;;3.72;;
22894;SDS011;11614;52.494;6.976;2023-07-29T09:13:56;4.03;;;3.50;;
22894;SDS011;11614;52.494;6.976;2023-07-29T09:16:22;3.28;;;2.40;;
22894;SDS011;11614;52.494;6.976;2023-07-29T09:18:49;4.47;;;3.15;;
22894;SDS011;11614;52.494;6.976;2023-07-29T09:21:23;3.45;;;2.65;;
22894;SDS011;11614;52.494;6.976;2023-07-29T09:23:53;3.70;;;2.72;;
22894;SDS011;11614;52.494;6.976;2023-07-29T09:26:23;4.78;;;2.20;;
22894;SDS011;11614;52.494;6.976;2023-07-29T09:28:51;3.08;;;2.42;;
22894;SDS011;11614;52.494;6.976;2023-07-29T09:31:24;2.22;;;2.00;;
22894;SDS011;11614;52.494;6.976;2023-07-29T09:33:57;2.42;;;2.22;;
22894;SDS011;11614;52.494;6.976;2023-07-29T09:36:23;2.67;;;2.13;;
22894;SDS011;11614;52.494;6.976;2023-07-29T09:38:53;4.30;;;2.10;;
22894;SDS011;11614;52.494;6.976;2023-07-29T09:41:20;2.60;;;1.90;;
22894;SDS011;11614;52.494;6.976;2023-07-29T09:43:47;2.45;;;2.25;;
22894;SDS011;11614;52.494;6.976;2023-07-29T09:46:13;2.90;;;2.58;;
22894;SDS011;11614;52.494;6.976;2023-07-29T09:48:39;2.63;;;2.17;;
22894;SDS011;11614;52.494;6.976;2023-07-29T09:51:10;2.55;;;2.35;;
22894;SDS011;11614;52.494;6.976;2023-07-29T09:53:46;3.42;;;2.60;;
22894;SDS011;11614;52.494;6.976;2023-07-29T09:56:12;3.15;;;2.85;;
22894;SDS011;11614;52.494;6.976;2023-07-29T09:58:38;3.53;;;2.55;;
22894;SDS011;11614;52.494;6.976;2023-07-29T10:01:08;3.13;;;2.35;;
22894;SDS011;11614;52.494;6.976;2023-07-29T10:03:34;3.75;;;2.90;;
22894;SDS011;11614;52.494;6.976;2023-07-29T10:06:02;2.70;;;1.85;;
22894;SDS011;11614;52.494;6.976;2023-07-29T10:08:31;3.10;;;2.80;;
22894;SDS011;11614;52.494;6.976;2023-07-29T10:11:00;3.47;;;2.67;;
22894;SDS011;11614;52.494;6.976;2023-07-29T10:13:26;2.53;;;2.33;;
22894;SDS011;11614;52.494;6.976;2023-07-29T10:15:55;2.30;;;2.10;;
22894;SDS011;11614;52.494;6.976;2023-07-29T10:18:22;2.40;;;2.20;;
22894;SDS011;11614;52.494;6.976;2023-07-29T10:20:49;2.13;;;1.92;;
22894;SDS011;11614;52.494;6.976;2023-07-29T10:23:17;2.65;;;2.22;;
22894;SDS011;11614;52.494;6.976;2023-07-29T10:25:46;3.42;;;2.53;;
22894;SDS011;11614;52.494;6.976;2023-07-29T10:28:12;2.08;;;1.88;;
22894;SDS011;11614;52.494;6.976;2023-07-29T10:30:41;3.60;;;2.28;;
22894;SDS011;11614;52.494;6.976;2023-07-29T10:33:07;4.22;;;2.85;;
22894;SDS011;11614;52.494;6.976;2023-07-29T10:35:35;3.53;;;2.90;;
22894;SDS011;11614;52.494;6.976;2023-07-29T10:38:02;3.08;;;2.30;;
22894;SDS011;11614;52.494;6.976;2023-07-29T10:43:35;4.80;;;3.42;;
22894;SDS011;11614;52.494;6.976;2023-07-29T10:46:21;4.30;;;3.28;;
22894;SDS011;11614;52.494;6.976;2023-07-29T10:51:26;3.03;;;2.58;;
22894;SDS011;11614;52.494;6.976;2023-07-29T10:53:58;2.60;;;1.77;;
22894;SDS011;11614;52.494;6.976;2023-07-29T10:56:26;2.35;;;2.00;;
22894;SDS011;11614;52.494;6.976;2023-07-29T10:58:54;2.85;;;2.20;;
22894;SDS011;11614;52.494;6.976;2023-07-29T11:01:30;2.65;;;2.45;;
22894;SDS011;11614;52.494;6.976;2023-07-29T11:09:41;3.10;;;2.53;;
22894;SDS011;11614;52.494;6.976;2023-07-29T11:12:52;4.25;;;3.08;;
22894;SDS011;11614;52.494;6.976;2023-07-29T11:14:54;3.85;;;3.22;;
22894;SDS011;11614;52.494;6.976;2023-07-29T11:17:20;3.35;;;2.95;;
22894;SDS011;11614;52.494;6.976;2023-07-29T11:19:46;3.50;;;3.20;;
22894;SDS011;11614;52.494;6.976;2023-07-29T11:22:13;5.97;;;3.75;;
22894;SDS011;11614;52.494;6.976;2023-07-29T11:24:41;4.65;;;3.67;;
22894;SDS011;11614;52.494;6.976;2023-07-29T11:27:11;3.90;;;3.50;;
22894;SDS011;11614;52.494;6.976;2023-07-29T11:29:37;3.20;;;2.90;;
22894;SDS011;11614;52.494;6.976;2023-07-29T11:32:03;5.55;;;4.32;;
22894;SDS011;11614;52.494;6.976;2023-07-29T11:34:32;5.20;;;3.63;;
22894;SDS011;11614;52.494;6.976;2023-07-29T11:36:58;4.95;;;4.43;;
22894;SDS011;11614;52.494;6.976;2023-07-29T11:39:24;4.45;;;4.03;;
22894;SDS011;11614;52.494;6.976;2023-07-29T11:41:50;5.20;;;4.03;;
22894;SDS011;11614;52.494;6.976;2023-07-29T11:44:16;6.18;;;4.05;;
22894;SDS011;11614;52.494;6.976;2023-07-29T11:46:43;3.88;;;3.45;;
22894;SDS011;11614;52.494;6.976;2023-07-29T11:49:09;4.43;;;3.63;;
22894;SDS011;11614;52.494;6.976;2023-07-29T11:51:38;3.80;;;3.45;;
22894;SDS011;11614;52.494;6.976;2023-07-29T11:54:04;4.30;;;3.95;;
22894;SDS011;11614;52.494;6.976;2023-07-29T11:56:30;4.72;;;4.32;;
22894;SDS011;11614;52.494;6.976;2023-07-29T11:58:58;5.53;;;3.97;;
22894;SDS011;11614;52.494;6.976;2023-07-29T12:01:24;4.55;;;4.15;;
22894;SDS011;11614;52.494;6.976;2023-07-29T12:03:50;3.90;;;3.60;;
22894;SDS011;11614;52.494;6.976;2023-07-29T12:06:16;3.83;;;3.53;;
22894;SDS011;11614;52.494;6.976;2023-07-29T12:08:42;3.65;;;3.28;;
22894;SDS011;11614;52.494;6.976;2023-07-29T12:11:09;3.67;;;3.38;;
22894;SDS011;11614;52.494;6.976;2023-07-29T12:13:38;5.70;;;3.55;;
22894;SDS011;11614;52.494;6.976;2023-07-29T12:16:04;3.50;;;3.20;;
22894;SDS011;11614;52.494;6.976;2023-07-29T12:18:30;4.43;;;3.60;;
22894;SDS011;11614;52.494;6.976;2023-07-29T12:20:56;3.90;;;2.78;;
22894;SDS011;11614;52.494;6.976;2023-07-29T12:23:25;4.10;;;3.22;;
22894;SDS011;11614;52.494;6.976;2023-07-29T12:25:56;3.70;;;3.25;;
22894;SDS011;11614;52.494;6.976;2023-07-29T12:28:22;4.32;;;3.92;;
22894;SDS011;11614;52.494;6.976;2023-07-29T12:30:52;3.50;;;3.30;;
22894;SDS011;11614;52.494;6.976;2023-07-29T12:33:31;4.32;;;3.95;;
22894;SDS011;11614;52.494;6.976;2023-07-29T12:35:57;4.68;;;3.47;;
22894;SDS011;11614;52.494;6.976;2023-07-29T12:38:26;6.07;;;4.90;;
22894;SDS011;11614;52.494;6.976;2023-07-29T12:40:53;4.22;;;3.88;;
22894;SDS011;11614;52.494;6.976;2023-07-29T12:43:19;3.70;;;3.40;;
22894;SDS011;11614;52.494;6.976;2023-07-29T12:45:45;5.40;;;4.07;;
22894;SDS011;11614;52.494;6.976;2023-07-29T12:48:11;4.47;;;4.07;;
22894;SDS011;11614;52.494;6.976;2023-07-29T12:50:37;4.75;;;3.67;;
22894;SDS011;11614;52.494;6.976;2023-07-29T12:53:07;3.72;;;3.42;;
22894;SDS011;11614;52.494;6.976;2023-07-29T12:55:33;4.32;;;3.08;;
22894;SDS011;11614;52.494;6.976;2023-07-29T12:57:59;4.05;;;3.72;;
22894;SDS011;11614;52.494;6.976;2023-07-29T13:00:25;3.17;;;2.90;;
22894;SDS011;11614;52.494;6.976;2023-07-29T13:02:52;3.55;;;3.25;;
22894;SDS011;11614;52.494;6.976;2023-07-29T13:05:18;6.45;;;3.97;;
22894;SDS011;11614;52.494;6.976;2023-07-29T13:07:44;3.70;;;3.40;;
22894;SDS011;11614;52.494;6.976;2023-07-29T13:10:10;4.63;;;2.90;;
22894;SDS011;11614;52.494;6.976;2023-07-29T13:12:36;3.95;;;3.55;;
22894;SDS011;11614;52.494;6.976;2023-07-29T13:15:02;5.85;;;2.90;;
22894;SDS011;11614;52.494;6.976;2023-07-29T13:17:28;4.05;;;3.17;;
22894;SDS011;11614;52.494;6.976;2023-07-29T13:19:54;3.45;;;2.90;;
22894;SDS011;11614;52.494;6.976;2023-07-29T13:22:20;3.65;;;2.88;;
22894;SDS011;11614;52.494;6.976;2023-07-29T13:24:46;2.80;;;2.60;;
22894;SDS011;11614;52.494;6.976;2023-07-29T13:27:12;3.65;;;3.15;;
22894;SDS011;11614;52.494;6.976;2023-07-29T13:29:39;2.88;;;2.60;;
22894;SDS011;11614;52.494;6.976;2023-07-29T13:32:06;3.60;;;3.05;;
22894;SDS011;11614;52.494;6.976;2023-07-29T13:34:32;3.40;;;2.90;;
22894;SDS011;11614;52.494;6.976;2023-07-29T13:36:59;4.03;;;2.50;;
22894;SDS011;11614;52.494;6.976;2023-07-29T13:39:25;3.33;;;2.92;;
22894;SDS011;11614;52.494;6.976;2023-07-29T13:41:52;3.13;;;2.78;;
22894;SDS011;11614;52.494;6.976;2023-07-29T13:44:18;3.35;;;3.05;;
22894;SDS011;11614;52.494;6.976;2023-07-29T13:46:44;2.90;;;2.70;;
22894;SDS011;11614;52.494;6.976;2023-07-29T13:49:10;3.97;;;3.58;;
22894;SDS011;11614;52.494;6.976;2023-07-29T13:51:36;3.60;;;3.15;;
22894;SDS011;11614;52.494;6.976;2023-07-29T13:54:03;3.20;;;2.90;;
22894;SDS011;11614;52.494;6.976;2023-07-29T13:56:29;2.75;;;2.55;;
22894;SDS011;11614;52.494;6.976;2023-07-29T13:58:55;3.00;;;2.80;;
22894;SDS011;11614;52.494;6.976;2023-07-29T14:01:20;2.00;;;1.90;;
22894;SDS011;11614;52.494;6.976;2023-07-29T14:03:49;3.13;;;2.80;;
22894;SDS011;11614;52.494;6.976;2023-07-29T14:06:15;2.20;;;2.00;;
22894;SDS011;11614;52.494;6.976;2023-07-29T14:08:41;1.60;;;1.35;;
22894;SDS011;11614;52.494;6.976;2023-07-29T14:11:07;1.42;;;1.33;;
22894;SDS011;11614;52.494;6.976;2023-07-29T14:13:33;0.98;;;0.98;;
22894;SDS011;11614;52.494;6.976;2023-07-29T14:16:02;1.58;;;1.48;;
22894;SDS011;11614;52.494;6.976;2023-07-29T14:18:29;2.15;;;1.60;;
22894;SDS011;11614;52.494;6.976;2023-07-29T14:20:55;1.80;;;1.50;;
22894;SDS011;11614;52.494;6.976;2023-07-29T14:23:21;1.63;;;1.52;;
22894;SDS011;11614;52.494;6.976;2023-07-29T14:25:47;1.60;;;1.45;;
22894;SDS011;11614;52.494;6.976;2023-07-29T14:28:13;1.38;;;1.27;;
22894;SDS011;11614;52.494;6.976;2023-07-29T14:30:40;1.25;;;1.20;;
22894;SDS011;11614;52.494;6.976;2023-07-29T14:33:06;1.33;;;1.23;;
22894;SDS011;11614;52.494;6.976;2023-07-29T14:35:37;1.88;;;1.67;;
22894;SDS011;11614;52.494;6.976;2023-07-29T14:38:03;1.30;;;1.20;;
22894;SDS011;11614;52.494;6.976;2023-07-29T14:40:29;1.70;;;1.60;;
22894;SDS011;11614;52.494;6.976;2023-07-29T14:42:55;1.35;;;1.30;;
22894;SDS011;11614;52.494;6.976;2023-07-29T14:45:21;1.42;;;1.20;;
22894;SDS011;11614;52.494;6.976;2023-07-29T14:47:47;1.80;;;1.20;;